sensor_id;sensor_type;location;lat;lon;timestamp;P1;durP1;ratioP1;P2;durP2;ratioP2
52322;SDS011;38263;52.920;6.238;2023-02-12T00:01:18;14.90;;;9.38;;
52322;SDS011;38263;52.920;6.238;2023-02-12T00:03:45;17.88;;;8.13;;
52322;SDS011;38263;52.920;6.238;2023-02-12T00:06:11;13.48;;;8.15;;
52322;SDS011;38263;52.920;6.238;2023-02-12T00:08:37;20.05;;;8.52;;
52322;SDS011;38263;52.920;6.238;2023-02-12T00:11:07;17.45;;;8.75;;
52322;SDS011;38263;52.920;6.238;2023-02-12T00:13:33;23.30;;;9.55;;
52322;SDS011;38263;52.920;6.238;2023-02-12T00:16:02;24.92;;;11.10;;
52322;SDS011;38263;52.920;6.238;2023-02-12T00:18:28;21.77;;;10.85;;
52322;SDS011;38263;52.920;6.238;2023-02-12T00:20:54;30.75;;;13.43;;
52322;SDS011;38263;52.920;6.238;2023-02-12T00:23:20;34.42;;;12.93;;
52322;SDS011;38263;52.920;6.238;2023-02-12T00:25:46;26.33;;;11.98;;
52322;SDS011;38263;52.920;6.238;2023-02-12T00:28:12;27.45;;;13.38;;
52322;SDS011;38263;52.920;6.238;2023-02-12T00:30:38;33.15;;;12.57;;
52322;SDS011;38263;52.920;6.238;2023-02-12T00:33:04;61.53;;;14.05;;
52322;SDS011;38263;52.920;6.238;2023-02-12T00:35:30;69.05;;;13.80;;
52322;SDS011;38263;52.920;6.238;2023-02-12T00:37:56;78.15;;;14.50;;
52322;SDS011;38263;52.920;6.238;2023-02-12T00:40:22;117.40;;;16.33;;
52322;SDS011;38263;52.920;6.238;2023-02-12T00:42:47;103.25;;;14.35;;
52322;SDS011;38263;52.920;6.238;2023-02-12T00:45:13;90.90;;;14.00;;
52322;SDS011;38263;52.920;6.238;2023-02-12T00:47:39;94.18;;;13.50;;
52322;SDS011;38263;52.920;6.238;2023-02-12T00:50:05;90.07;;;12.93;;
52322;SDS011;38263;52.920;6.238;2023-02-12T00:52:31;89.43;;;13.10;;
52322;SDS011;38263;52.920;6.238;2023-02-12T00:54:57;59.63;;;12.52;;
52322;SDS011;38263;52.920;6.238;2023-02-12T00:57:23;111.38;;;13.95;;
52322;SDS011;38263;52.920;6.238;2023-02-12T00:59:49;68.68;;;13.68;;
52322;SDS011;38263;52.920;6.238;2023-02-12T01:02:15;122.57;;;15.45;;
52322;SDS011;38263;52.920;6.238;2023-02-12T01:04:42;76.72;;;14.07;;
52322;SDS011;38263;52.920;6.238;2023-02-12T01:07:08;63.03;;;12.48;;
52322;SDS011;38263;52.920;6.238;2023-02-12T01:09:34;84.15;;;13.32;;
52322;SDS011;38263;52.920;6.238;2023-02-12T01:12:00;34.38;;;11.63;;
52322;SDS011;38263;52.920;6.238;2023-02-12T01:14:26;92.72;;;13.48;;
52322;SDS011;38263;52.920;6.238;2023-02-12T01:16:52;93.82;;;14.23;;
52322;SDS011;38263;52.920;6.238;2023-02-12T01:19:18;89.07;;;13.73;;
52322;SDS011;38263;52.920;6.238;2023-02-12T01:21:44;74.03;;;13.57;;
52322;SDS011;38263;52.920;6.238;2023-02-12T01:24:10;33.10;;;13.02;;
52322;SDS011;38263;52.920;6.238;2023-02-12T01:26:36;61.45;;;15.43;;
52322;SDS011;38263;52.920;6.238;2023-02-12T01:29:04;26.20;;;10.52;;
52322;SDS011;38263;52.920;6.238;2023-02-12T01:31:32;113.45;;;14.23;;
52322;SDS011;38263;52.920;6.238;2023-02-12T01:33:59;97.65;;;13.82;;
52322;SDS011;38263;52.920;6.238;2023-02-12T01:36:25;89.90;;;12.07;;
52322;SDS011;38263;52.920;6.238;2023-02-12T01:38:51;72.95;;;12.65;;
52322;SDS011;38263;52.920;6.238;2023-02-12T01:41:21;69.75;;;11.45;;
52322;SDS011;38263;52.920;6.238;2023-02-12T01:44:04;93.38;;;13.00;;
52322;SDS011;38263;52.920;6.238;2023-02-12T01:46:30;75.63;;;11.52;;
52322;SDS011;38263;52.920;6.238;2023-02-12T01:48:56;61.55;;;11.98;;
52322;SDS011;38263;52.920;6.238;2023-02-12T01:51:22;57.78;;;11.40;;
52322;SDS011;38263;52.920;6.238;2023-02-12T01:53:52;50.20;;;11.10;;
52322;SDS011;38263;52.920;6.238;2023-02-12T01:56:18;62.40;;;12.27;;
52322;SDS011;38263;52.920;6.238;2023-02-12T01:58:45;60.65;;;12.25;;
52322;SDS011;38263;52.920;6.238;2023-02-12T02:01:12;42.95;;;11.10;;
52322;SDS011;38263;52.920;6.238;2023-02-12T02:03:44;57.40;;;12.65;;
52322;SDS011;38263;52.920;6.238;2023-02-12T02:06:13;55.33;;;12.95;;
52322;SDS011;38263;52.920;6.238;2023-02-12T02:08:40;57.97;;;12.75;;
52322;SDS011;38263;52.920;6.238;2023-02-12T02:11:06;49.80;;;12.13;;
52322;SDS011;38263;52.920;6.238;2023-02-12T02:13:51;43.67;;;12.18;;
52322;SDS011;38263;52.920;6.238;2023-02-12T02:16:36;44.58;;;13.60;;
52322;SDS011;38263;52.920;6.238;2023-02-12T02:19:08;42.83;;;13.52;;
52322;SDS011;38263;52.920;6.238;2023-02-12T02:29:41;24.58;;;13.82;;
52322;SDS011;38263;52.920;6.238;2023-02-12T02:34:56;37.00;;;16.02;;
52322;SDS011;38263;52.920;6.238;2023-02-12T02:37:39;57.83;;;16.38;;
52322;SDS011;38263;52.920;6.238;2023-02-12T02:42:38;32.25;;;13.40;;
52322;SDS011;38263;52.920;6.238;2023-02-12T02:45:13;39.25;;;14.20;;
52322;SDS011;38263;52.920;6.238;2023-02-12T02:47:47;35.67;;;14.07;;
52322;SDS011;38263;52.920;6.238;2023-02-12T02:50:14;38.53;;;15.05;;
52322;SDS011;38263;52.920;6.238;2023-02-12T02:53:03;32.40;;;13.20;;
52322;SDS011;38263;52.920;6.238;2023-02-12T02:55:29;46.65;;;13.75;;
52322;SDS011;38263;52.920;6.238;2023-02-12T02:57:58;62.65;;;14.80;;
52322;SDS011;38263;52.920;6.238;2023-02-12T03:05:54;49.58;;;14.23;;
52322;SDS011;38263;52.920;6.238;2023-02-12T03:08:34;65.82;;;14.32;;
52322;SDS011;38263;52.920;6.238;2023-02-12T03:11:09;59.53;;;13.93;;
52322;SDS011;38263;52.920;6.238;2023-02-12T03:13:42;91.95;;;14.88;;
52322;SDS011;38263;52.920;6.238;2023-02-12T03:16:14;46.67;;;13.70;;
52322;SDS011;38263;52.920;6.238;2023-02-12T03:18:42;66.35;;;14.38;;
52322;SDS011;38263;52.920;6.238;2023-02-12T03:21:15;34.13;;;14.07;;
52322;SDS011;38263;52.920;6.238;2023-02-12T03:23:43;69.10;;;13.85;;
52322;SDS011;38263;52.920;6.238;2023-02-12T03:26:17;64.45;;;14.73;;
52322;SDS011;38263;52.920;6.238;2023-02-12T03:28:45;33.80;;;13.73;;
52322;SDS011;38263;52.920;6.238;2023-02-12T03:36:32;36.25;;;13.10;;
52322;SDS011;38263;52.920;6.238;2023-02-12T03:42:04;47.45;;;13.68;;
52322;SDS011;38263;52.920;6.238;2023-02-12T03:47:20;29.55;;;11.98;;
52322;SDS011;38263;52.920;6.238;2023-02-12T03:49:50;38.63;;;13.55;;
52322;SDS011;38263;52.920;6.238;2023-02-12T03:52:18;22.50;;;11.82;;
52322;SDS011;38263;52.920;6.238;2023-02-12T03:54:44;34.53;;;13.63;;
52322;SDS011;38263;52.920;6.238;2023-02-12T03:57:11;46.35;;;13.35;;
52322;SDS011;38263;52.920;6.238;2023-02-12T03:59:38;52.78;;;14.82;;
52322;SDS011;38263;52.920;6.238;2023-02-12T04:02:05;27.83;;;13.55;;
52322;SDS011;38263;52.920;6.238;2023-02-12T04:04:31;39.38;;;13.57;;
52322;SDS011;38263;52.920;6.238;2023-02-12T04:06:57;26.25;;;12.88;;
52322;SDS011;38263;52.920;6.238;2023-02-12T04:09:24;22.17;;;13.30;;
52322;SDS011;38263;52.920;6.238;2023-02-12T04:17:08;23.10;;;14.97;;
52322;SDS011;38263;52.920;6.238;2023-02-12T04:19:39;23.75;;;12.70;;
52322;SDS011;38263;52.920;6.238;2023-02-12T04:22:12;28.08;;;14.80;;
52322;SDS011;38263;52.920;6.238;2023-02-12T04:24:49;24.10;;;13.35;;
52322;SDS011;38263;52.920;6.238;2023-02-12T04:27:28;38.40;;;13.63;;
52322;SDS011;38263;52.920;6.238;2023-02-12T04:30:11;37.97;;;12.63;;
52322;SDS011;38263;52.920;6.238;2023-02-12T04:37:33;48.83;;;14.65;;
52322;SDS011;38263;52.920;6.238;2023-02-12T04:40:02;38.70;;;13.18;;
52322;SDS011;38263;52.920;6.238;2023-02-12T04:42:29;64.07;;;14.40;;
52322;SDS011;38263;52.920;6.238;2023-02-12T04:44:54;40.40;;;14.80;;
52322;SDS011;38263;52.920;6.238;2023-02-12T04:47:20;53.97;;;15.60;;
52322;SDS011;38263;52.920;6.238;2023-02-12T04:49:46;91.57;;;16.63;;
52322;SDS011;38263;52.920;6.238;2023-02-12T04:52:12;68.85;;;15.75;;
52322;SDS011;38263;52.920;6.238;2023-02-12T04:54:38;89.20;;;16.00;;
52322;SDS011;38263;52.920;6.238;2023-02-12T04:57:04;50.80;;;14.25;;
52322;SDS011;38263;52.920;6.238;2023-02-12T04:59:30;50.33;;;14.93;;
52322;SDS011;38263;52.920;6.238;2023-02-12T05:01:56;42.38;;;13.38;;
52322;SDS011;38263;52.920;6.238;2023-02-12T05:04:22;70.95;;;15.02;;
52322;SDS011;38263;52.920;6.238;2023-02-12T05:06:47;64.32;;;14.50;;
52322;SDS011;38263;52.920;6.238;2023-02-12T05:09:15;49.90;;;14.18;;
52322;SDS011;38263;52.920;6.238;2023-02-12T05:11:41;53.03;;;14.10;;
52322;SDS011;38263;52.920;6.238;2023-02-12T05:14:07;63.95;;;14.18;;
52322;SDS011;38263;52.920;6.238;2023-02-12T05:16:33;54.05;;;15.82;;
52322;SDS011;38263;52.920;6.238;2023-02-12T05:18:59;57.38;;;14.27;;
52322;SDS011;38263;52.920;6.238;2023-02-12T05:21:25;45.60;;;13.95;;
52322;SDS011;38263;52.920;6.238;2023-02-12T05:23:51;55.60;;;14.55;;
52322;SDS011;38263;52.920;6.238;2023-02-12T05:26:18;55.65;;;14.52;;
52322;SDS011;38263;52.920;6.238;2023-02-12T05:28:44;71.85;;;15.63;;
52322;SDS011;38263;52.920;6.238;2023-02-12T05:31:15;67.03;;;15.18;;
52322;SDS011;38263;52.920;6.238;2023-02-12T05:33:41;76.22;;;15.50;;
52322;SDS011;38263;52.920;6.238;2023-02-12T05:36:12;52.50;;;16.23;;
52322;SDS011;38263;52.920;6.238;2023-02-12T05:38:38;39.20;;;14.50;;
52322;SDS011;38263;52.920;6.238;2023-02-12T05:41:23;54.47;;;16.23;;
52322;SDS011;38263;52.920;6.238;2023-02-12T05:43:49;42.97;;;15.98;;
52322;SDS011;38263;52.920;6.238;2023-02-12T05:46:16;44.72;;;17.02;;
52322;SDS011;38263;52.920;6.238;2023-02-12T05:48:42;51.25;;;14.77;;
52322;SDS011;38263;52.920;6.238;2023-02-12T05:51:09;58.65;;;17.30;;
52322;SDS011;38263;52.920;6.238;2023-02-12T05:53:36;66.90;;;16.45;;
52322;SDS011;38263;52.920;6.238;2023-02-12T05:56:15;60.90;;;17.85;;
52322;SDS011;38263;52.920;6.238;2023-02-12T05:58:42;52.80;;;16.40;;
52322;SDS011;38263;52.920;6.238;2023-02-12T06:01:10;43.47;;;17.15;;
52322;SDS011;38263;52.920;6.238;2023-02-12T06:03:36;49.53;;;17.27;;
52322;SDS011;38263;52.920;6.238;2023-02-12T06:06:02;53.72;;;17.88;;
52322;SDS011;38263;52.920;6.238;2023-02-12T06:08:28;51.60;;;19.65;;
52322;SDS011;38263;52.920;6.238;2023-02-12T06:10:54;48.65;;;18.27;;
52322;SDS011;38263;52.920;6.238;2023-02-12T06:13:20;47.55;;;17.58;;
52322;SDS011;38263;52.920;6.238;2023-02-12T06:15:46;48.63;;;17.67;;
52322;SDS011;38263;52.920;6.238;2023-02-12T06:18:11;36.63;;;17.77;;
52322;SDS011;38263;52.920;6.238;2023-02-12T06:20:38;43.72;;;18.70;;
52322;SDS011;38263;52.920;6.238;2023-02-12T06:23:04;43.08;;;19.00;;
52322;SDS011;38263;52.920;6.238;2023-02-12T06:25:30;44.67;;;18.17;;
52322;SDS011;38263;52.920;6.238;2023-02-12T06:27:56;38.42;;;17.67;;
52322;SDS011;38263;52.920;6.238;2023-02-12T06:30:22;43.50;;;19.25;;
52322;SDS011;38263;52.920;6.238;2023-02-12T06:32:48;42.42;;;18.80;;
52322;SDS011;38263;52.920;6.238;2023-02-12T06:35:14;38.72;;;17.77;;
52322;SDS011;38263;52.920;6.238;2023-02-12T06:37:40;44.30;;;19.20;;
52322;SDS011;38263;52.920;6.238;2023-02-12T06:40:06;42.92;;;18.85;;
52322;SDS011;38263;52.920;6.238;2023-02-12T06:42:32;44.63;;;19.75;;
52322;SDS011;38263;52.920;6.238;2023-02-12T06:44:58;42.72;;;18.83;;
52322;SDS011;38263;52.920;6.238;2023-02-12T06:47:24;38.55;;;18.42;;
52322;SDS011;38263;52.920;6.238;2023-02-12T06:49:50;48.85;;;19.67;;
52322;SDS011;38263;52.920;6.238;2023-02-12T06:52:16;42.05;;;18.70;;
52322;SDS011;38263;52.920;6.238;2023-02-12T06:54:42;43.90;;;19.35;;
52322;SDS011;38263;52.920;6.238;2023-02-12T06:57:08;39.90;;;19.42;;
52322;SDS011;38263;52.920;6.238;2023-02-12T06:59:34;44.67;;;18.92;;
52322;SDS011;38263;52.920;6.238;2023-02-12T07:01:59;43.72;;;18.52;;
52322;SDS011;38263;52.920;6.238;2023-02-12T07:04:25;42.05;;;19.55;;
52322;SDS011;38263;52.920;6.238;2023-02-12T07:06:51;43.85;;;18.70;;
52322;SDS011;38263;52.920;6.238;2023-02-12T07:09:17;41.25;;;18.38;;
52322;SDS011;38263;52.920;6.238;2023-02-12T07:11:43;41.80;;;18.70;;
52322;SDS011;38263;52.920;6.238;2023-02-12T07:14:15;49.42;;;19.42;;
52322;SDS011;38263;52.920;6.238;2023-02-12T07:16:41;45.42;;;19.88;;
52322;SDS011;38263;52.920;6.238;2023-02-12T07:19:08;40.60;;;19.33;;
52322;SDS011;38263;52.920;6.238;2023-02-12T07:21:36;43.90;;;19.33;;
52322;SDS011;38263;52.920;6.238;2023-02-12T07:24:02;39.55;;;18.75;;
52322;SDS011;38263;52.920;6.238;2023-02-12T07:26:28;46.95;;;18.20;;
52322;SDS011;38263;52.920;6.238;2023-02-12T07:28:55;47.25;;;19.42;;
52322;SDS011;38263;52.920;6.238;2023-02-12T07:31:22;50.05;;;20.27;;
52322;SDS011;38263;52.920;6.238;2023-02-12T07:33:48;40.40;;;18.30;;
52322;SDS011;38263;52.920;6.238;2023-02-12T07:36:15;46.17;;;20.95;;
52322;SDS011;38263;52.920;6.238;2023-02-12T07:38:41;45.47;;;21.23;;
52322;SDS011;38263;52.920;6.238;2023-02-12T07:41:08;44.58;;;19.83;;
52322;SDS011;38263;52.920;6.238;2023-02-12T07:43:36;51.03;;;20.40;;
52322;SDS011;38263;52.920;6.238;2023-02-12T07:46:09;41.42;;;19.20;;
52322;SDS011;38263;52.920;6.238;2023-02-12T07:48:35;43.15;;;19.48;;
52322;SDS011;38263;52.920;6.238;2023-02-12T07:51:03;48.83;;;20.27;;
52322;SDS011;38263;52.920;6.238;2023-02-12T07:53:30;49.03;;;19.85;;
52322;SDS011;38263;52.920;6.238;2023-02-12T07:56:03;41.63;;;19.35;;
52322;SDS011;38263;52.920;6.238;2023-02-12T07:58:29;43.35;;;19.17;;
52322;SDS011;38263;52.920;6.238;2023-02-12T08:00:55;45.30;;;20.67;;
52322;SDS011;38263;52.920;6.238;2023-02-12T08:03:20;48.53;;;21.25;;
52322;SDS011;38263;52.920;6.238;2023-02-12T08:08:44;48.63;;;21.60;;
52322;SDS011;38263;52.920;6.238;2023-02-12T08:11:11;46.25;;;20.60;;
52322;SDS011;38263;52.920;6.238;2023-02-12T08:13:37;49.92;;;20.25;;
52322;SDS011;38263;52.920;6.238;2023-02-12T08:16:08;47.60;;;19.50;;
52322;SDS011;38263;52.920;6.238;2023-02-12T08:18:35;47.17;;;20.90;;
52322;SDS011;38263;52.920;6.238;2023-02-12T08:21:02;51.10;;;21.15;;
52322;SDS011;38263;52.920;6.238;2023-02-12T08:23:28;45.30;;;20.42;;
52322;SDS011;38263;52.920;6.238;2023-02-12T08:25:54;43.17;;;19.35;;
52322;SDS011;38263;52.920;6.238;2023-02-12T08:28:20;45.35;;;20.00;;
52322;SDS011;38263;52.920;6.238;2023-02-12T08:30:47;46.08;;;20.17;;
52322;SDS011;38263;52.920;6.238;2023-02-12T08:33:13;55.65;;;21.08;;
52322;SDS011;38263;52.920;6.238;2023-02-12T08:35:39;57.03;;;21.88;;
52322;SDS011;38263;52.920;6.238;2023-02-12T08:38:05;45.85;;;20.48;;
52322;SDS011;38263;52.920;6.238;2023-02-12T08:40:31;54.80;;;22.58;;
52322;SDS011;38263;52.920;6.238;2023-02-12T08:42:57;45.60;;;20.20;;
52322;SDS011;38263;52.920;6.238;2023-02-12T08:45:23;52.50;;;20.23;;
52322;SDS011;38263;52.920;6.238;2023-02-12T08:47:49;49.80;;;22.15;;
52322;SDS011;38263;52.920;6.238;2023-02-12T08:50:15;47.53;;;20.40;;
52322;SDS011;38263;52.920;6.238;2023-02-12T08:52:41;48.42;;;21.77;;
52322;SDS011;38263;52.920;6.238;2023-02-12T08:55:07;46.15;;;20.13;;
52322;SDS011;38263;52.920;6.238;2023-02-12T08:57:33;45.15;;;20.73;;
52322;SDS011;38263;52.920;6.238;2023-02-12T08:59:59;50.15;;;21.88;;
52322;SDS011;38263;52.920;6.238;2023-02-12T09:02:24;49.40;;;21.40;;
52322;SDS011;38263;52.920;6.238;2023-02-12T09:04:50;55.17;;;21.35;;
52322;SDS011;38263;52.920;6.238;2023-02-12T09:07:16;42.72;;;20.13;;
52322;SDS011;38263;52.920;6.238;2023-02-12T09:09:42;55.45;;;21.90;;
52322;SDS011;38263;52.920;6.238;2023-02-12T09:12:08;49.67;;;20.95;;
52322;SDS011;38263;52.920;6.238;2023-02-12T09:14:34;48.42;;;20.55;;
52322;SDS011;38263;52.920;6.238;2023-02-12T09:17:00;46.33;;;21.08;;
52322;SDS011;38263;52.920;6.238;2023-02-12T09:19:26;47.30;;;19.80;;
52322;SDS011;38263;52.920;6.238;2023-02-12T09:21:53;44.00;;;19.50;;
52322;SDS011;38263;52.920;6.238;2023-02-12T09:24:19;47.38;;;19.40;;
52322;SDS011;38263;52.920;6.238;2023-02-12T09:26:45;46.97;;;19.40;;
52322;SDS011;38263;52.920;6.238;2023-02-12T09:29:11;47.97;;;19.90;;
52322;SDS011;38263;52.920;6.238;2023-02-12T09:31:37;49.03;;;20.33;;
52322;SDS011;38263;52.920;6.238;2023-02-12T09:34:04;47.13;;;19.15;;
52322;SDS011;38263;52.920;6.238;2023-02-12T09:36:31;48.53;;;19.77;;
52322;SDS011;38263;52.920;6.238;2023-02-12T09:38:57;44.63;;;19.08;;
52322;SDS011;38263;52.920;6.238;2023-02-12T09:44:01;45.70;;;19.63;;
52322;SDS011;38263;52.920;6.238;2023-02-12T09:49:39;42.38;;;18.42;;
52322;SDS011;38263;52.920;6.238;2023-02-12T09:52:11;42.40;;;20.23;;
52322;SDS011;38263;52.920;6.238;2023-02-12T09:54:39;43.50;;;18.08;;
52322;SDS011;38263;52.920;6.238;2023-02-12T09:57:06;41.33;;;18.13;;
52322;SDS011;38263;52.920;6.238;2023-02-12T09:59:42;36.63;;;18.02;;
52322;SDS011;38263;52.920;6.238;2023-02-12T10:02:16;38.97;;;17.02;;
52322;SDS011;38263;52.920;6.238;2023-02-12T10:04:44;39.47;;;18.10;;
52322;SDS011;38263;52.920;6.238;2023-02-12T10:12:16;35.53;;;17.17;;
52322;SDS011;38263;52.920;6.238;2023-02-12T10:14:49;38.30;;;16.60;;
52322;SDS011;38263;52.920;6.238;2023-02-12T10:25:34;37.55;;;16.63;;
52322;SDS011;38263;52.920;6.238;2023-02-12T10:28:04;41.33;;;16.65;;
52322;SDS011;38263;52.920;6.238;2023-02-12T10:33:00;38.75;;;15.43;;
52322;SDS011;38263;52.920;6.238;2023-02-12T10:35:28;36.45;;;15.43;;
52322;SDS011;38263;52.920;6.238;2023-02-12T10:37:57;35.42;;;17.50;;
52322;SDS011;38263;52.920;6.238;2023-02-12T10:40:26;38.92;;;17.83;;
52322;SDS011;38263;52.920;6.238;2023-02-12T10:42:54;39.25;;;17.80;;
52322;SDS011;38263;52.920;6.238;2023-02-12T10:45:23;37.30;;;17.30;;
52322;SDS011;38263;52.920;6.238;2023-02-12T10:47:53;43.70;;;18.50;;
52322;SDS011;38263;52.920;6.238;2023-02-12T10:53:22;40.38;;;19.65;;
52322;SDS011;38263;52.920;6.238;2023-02-12T10:55:48;40.30;;;17.88;;
52322;SDS011;38263;52.920;6.238;2023-02-12T10:58:21;39.72;;;17.55;;
52322;SDS011;38263;52.920;6.238;2023-02-12T11:00:55;41.33;;;19.20;;
52322;SDS011;38263;52.920;6.238;2023-02-12T11:03:22;42.70;;;19.10;;
52322;SDS011;38263;52.920;6.238;2023-02-12T11:05:48;43.67;;;19.55;;
52322;SDS011;38263;52.920;6.238;2023-02-12T11:11:01;41.60;;;17.83;;
52322;SDS011;38263;52.920;6.238;2023-02-12T11:13:28;41.20;;;18.60;;
52322;SDS011;38263;52.920;6.238;2023-02-12T11:15:54;40.10;;;19.05;;
52322;SDS011;38263;52.920;6.238;2023-02-12T11:18:21;40.28;;;18.13;;
52322;SDS011;38263;52.920;6.238;2023-02-12T11:21:00;34.20;;;17.15;;
52322;SDS011;38263;52.920;6.238;2023-02-12T11:23:40;39.15;;;18.60;;
52322;SDS011;38263;52.920;6.238;2023-02-12T11:28:34;37.88;;;18.13;;
52322;SDS011;38263;52.920;6.238;2023-02-12T11:31:01;36.28;;;17.30;;
52322;SDS011;38263;52.920;6.238;2023-02-12T11:33:41;36.08;;;17.55;;
52322;SDS011;38263;52.920;6.238;2023-02-12T11:38:46;33.33;;;16.45;;
52322;SDS011;38263;52.920;6.238;2023-02-12T11:41:39;33.45;;;17.20;;
52322;SDS011;38263;52.920;6.238;2023-02-12T11:44:09;33.03;;;15.77;;
52322;SDS011;38263;52.920;6.238;2023-02-12T11:46:37;33.50;;;16.33;;
52322;SDS011;38263;52.920;6.238;2023-02-12T11:49:04;30.80;;;15.18;;
52322;SDS011;38263;52.920;6.238;2023-02-12T11:51:33;32.10;;;15.40;;
52322;SDS011;38263;52.920;6.238;2023-02-12T11:54:00;31.30;;;15.68;;
52322;SDS011;38263;52.920;6.238;2023-02-12T11:56:44;29.92;;;15.25;;
52322;SDS011;38263;52.920;6.238;2023-02-12T11:59:23;25.88;;;14.07;;
52322;SDS011;38263;52.920;6.238;2023-02-12T12:01:52;26.73;;;12.90;;
52322;SDS011;38263;52.920;6.238;2023-02-12T12:04:20;26.52;;;11.65;;
52322;SDS011;38263;52.920;6.238;2023-02-12T12:06:49;25.27;;;12.77;;
52322;SDS011;38263;52.920;6.238;2023-02-12T12:09:34;27.90;;;12.93;;
52322;SDS011;38263;52.920;6.238;2023-02-12T12:14:32;21.70;;;11.75;;
52322;SDS011;38263;52.920;6.238;2023-02-12T12:17:19;27.20;;;12.57;;
52322;SDS011;38263;52.920;6.238;2023-02-12T12:20:12;18.90;;;10.73;;
52322;SDS011;38263;52.920;6.238;2023-02-12T12:25:34;21.52;;;10.73;;
52322;SDS011;38263;52.920;6.238;2023-02-12T12:38:54;15.30;;;9.00;;
52322;SDS011;38263;52.920;6.238;2023-02-12T12:41:46;16.10;;;8.98;;
52322;SDS011;38263;52.920;6.238;2023-02-12T12:52:20;13.50;;;8.23;;
52322;SDS011;38263;52.920;6.238;2023-02-12T12:57:38;17.00;;;9.10;;
52322;SDS011;38263;52.920;6.238;2023-02-12T13:00:33;17.35;;;9.07;;
52322;SDS011;38263;52.920;6.238;2023-02-12T13:03:09;15.55;;;9.15;;
52322;SDS011;38263;52.920;6.238;2023-02-12T13:08:27;15.00;;;7.90;;
52322;SDS011;38263;52.920;6.238;2023-02-12T13:11:08;16.90;;;8.02;;
52322;SDS011;38263;52.920;6.238;2023-02-12T13:13:44;17.77;;;8.23;;
52322;SDS011;38263;52.920;6.238;2023-02-12T13:16:29;13.13;;;7.85;;
52322;SDS011;38263;52.920;6.238;2023-02-12T13:19:01;13.27;;;8.30;;
52322;SDS011;38263;52.920;6.238;2023-02-12T13:24:27;11.37;;;5.97;;
52322;SDS011;38263;52.920;6.238;2023-02-12T13:26:59;13.32;;;9.02;;
52322;SDS011;38263;52.920;6.238;2023-02-12T13:32:26;8.85;;;5.75;;
52322;SDS011;38263;52.920;6.238;2023-02-12T13:34:53;9.82;;;5.30;;
52322;SDS011;38263;52.920;6.238;2023-02-12T13:37:23;9.13;;;4.85;;
52322;SDS011;38263;52.920;6.238;2023-02-12T13:39:50;8.45;;;5.90;;
52322;SDS011;38263;52.920;6.238;2023-02-12T13:42:23;12.75;;;7.10;;
52322;SDS011;38263;52.920;6.238;2023-02-12T13:55:41;9.48;;;5.18;;
52322;SDS011;38263;52.920;6.238;2023-02-12T14:01:03;9.23;;;4.85;;
52322;SDS011;38263;52.920;6.238;2023-02-12T14:03:29;6.20;;;3.88;;
52322;SDS011;38263;52.920;6.238;2023-02-12T14:06:15;7.50;;;4.72;;
52322;SDS011;38263;52.920;6.238;2023-02-12T14:11:34;7.50;;;4.30;;
52322;SDS011;38263;52.920;6.238;2023-02-12T14:14:11;6.97;;;4.18;;
52322;SDS011;38263;52.920;6.238;2023-02-12T14:16:37;8.77;;;4.35;;
52322;SDS011;38263;52.920;6.238;2023-02-12T14:24:51;10.00;;;5.33;;
52322;SDS011;38263;52.920;6.238;2023-02-12T14:35:34;11.18;;;6.70;;
52322;SDS011;38263;52.920;6.238;2023-02-12T14:40:37;8.65;;;5.18;;
52322;SDS011;38263;52.920;6.238;2023-02-12T14:43:26;8.45;;;4.22;;
52322;SDS011;38263;52.920;6.238;2023-02-12T14:45:53;6.45;;;4.00;;
52322;SDS011;38263;52.920;6.238;2023-02-12T14:49:02;5.38;;;3.65;;
52322;SDS011;38263;52.920;6.238;2023-02-12T14:51:13;5.28;;;3.53;;
52322;SDS011;38263;52.920;6.238;2023-02-12T14:53:45;7.18;;;3.97;;
52322;SDS011;38263;52.920;6.238;2023-02-12T14:56:13;8.05;;;4.80;;
52322;SDS011;38263;52.920;6.238;2023-02-12T14:58:43;7.22;;;3.90;;
52322;SDS011;38263;52.920;6.238;2023-02-12T15:01:10;6.82;;;4.40;;
52322;SDS011;38263;52.920;6.238;2023-02-12T15:06:20;6.80;;;4.15;;
52322;SDS011;38263;52.920;6.238;2023-02-12T15:08:53;7.45;;;4.65;;
52322;SDS011;38263;52.920;6.238;2023-02-12T15:14:00;7.47;;;4.45;;
52322;SDS011;38263;52.920;6.238;2023-02-12T15:16:30;6.70;;;4.47;;
52322;SDS011;38263;52.920;6.238;2023-02-12T15:19:04;11.02;;;4.72;;
52322;SDS011;38263;52.920;6.238;2023-02-12T15:21:35;4.43;;;3.17;;
52322;SDS011;38263;52.920;6.238;2023-02-12T15:24:09;5.63;;;3.10;;
52322;SDS011;38263;52.920;6.238;2023-02-12T15:26:39;7.32;;;3.40;;
52322;SDS011;38263;52.920;6.238;2023-02-12T15:29:06;3.95;;;2.80;;
52322;SDS011;38263;52.920;6.238;2023-02-12T15:31:32;5.85;;;3.20;;
52322;SDS011;38263;52.920;6.238;2023-02-12T15:34:00;7.63;;;3.13;;
52322;SDS011;38263;52.920;6.238;2023-02-12T15:36:27;6.15;;;3.28;;
52322;SDS011;38263;52.920;6.238;2023-02-12T15:38:55;6.43;;;3.83;;
52322;SDS011;38263;52.920;6.238;2023-02-12T15:41:26;4.70;;;3.80;;
52322;SDS011;38263;52.920;6.238;2023-02-12T15:43:52;6.13;;;4.43;;
52322;SDS011;38263;52.920;6.238;2023-02-12T15:46:18;8.38;;;4.10;;
52322;SDS011;38263;52.920;6.238;2023-02-12T15:48:44;7.35;;;4.78;;
52322;SDS011;38263;52.920;6.238;2023-02-12T15:54:03;6.88;;;4.70;;
52322;SDS011;38263;52.920;6.238;2023-02-12T15:56:30;6.90;;;4.88;;
52322;SDS011;38263;52.920;6.238;2023-02-12T15:59:01;8.13;;;4.85;;
52322;SDS011;38263;52.920;6.238;2023-02-12T16:01:28;8.57;;;5.80;;
52322;SDS011;38263;52.920;6.238;2023-02-12T16:03:56;8.10;;;4.88;;
52322;SDS011;38263;52.920;6.238;2023-02-12T16:06:27;8.02;;;4.95;;
52322;SDS011;38263;52.920;6.238;2023-02-12T16:08:56;10.32;;;5.20;;
52322;SDS011;38263;52.920;6.238;2023-02-12T16:11:22;8.25;;;5.47;;
52322;SDS011;38263;52.920;6.238;2023-02-12T16:13:50;8.90;;;5.10;;
52322;SDS011;38263;52.920;6.238;2023-02-12T16:16:23;7.97;;;5.15;;
52322;SDS011;38263;52.920;6.238;2023-02-12T16:21:36;6.55;;;5.00;;
52322;SDS011;38263;52.920;6.238;2023-02-12T16:24:03;10.40;;;5.95;;
52322;SDS011;38263;52.920;6.238;2023-02-12T16:26:40;7.70;;;6.25;;
52322;SDS011;38263;52.920;6.238;2023-02-12T16:29:12;8.73;;;6.47;;
52322;SDS011;38263;52.920;6.238;2023-02-12T16:31:41;7.10;;;5.38;;
52322;SDS011;38263;52.920;6.238;2023-02-12T16:34:26;6.68;;;5.50;;
52322;SDS011;38263;52.920;6.238;2023-02-12T16:36:53;6.55;;;5.18;;
52322;SDS011;38263;52.920;6.238;2023-02-12T16:42:03;8.85;;;4.95;;
52322;SDS011;38263;52.920;6.238;2023-02-12T16:44:38;7.22;;;5.20;;
52322;SDS011;38263;52.920;6.238;2023-02-12T16:47:04;6.47;;;5.68;;
52322;SDS011;38263;52.920;6.238;2023-02-12T16:49:30;7.53;;;6.40;;
52322;SDS011;38263;52.920;6.238;2023-02-12T16:54:46;7.40;;;5.60;;
52322;SDS011;38263;52.920;6.238;2023-02-12T16:57:12;8.15;;;5.28;;
52322;SDS011;38263;52.920;6.238;2023-02-12T16:59:38;8.65;;;5.60;;
52322;SDS011;38263;52.920;6.238;2023-02-12T17:02:11;8.68;;;5.60;;
52322;SDS011;38263;52.920;6.238;2023-02-12T17:04:37;5.55;;;4.97;;
52322;SDS011;38263;52.920;6.238;2023-02-12T17:07:08;7.05;;;5.00;;
52322;SDS011;38263;52.920;6.238;2023-02-12T17:09:34;7.00;;;5.38;;
52322;SDS011;38263;52.920;6.238;2023-02-12T17:12:00;6.00;;;4.50;;
52322;SDS011;38263;52.920;6.238;2023-02-12T17:14:26;8.80;;;5.22;;
52322;SDS011;38263;52.920;6.238;2023-02-12T17:16:51;7.47;;;5.18;;